KRIC/RIC METAR and TAF weather

Enter ICAO airport designator
Station Type Date Time Source
KRIC METAR 2021/01/17 19:54 UTC NOAA

KRIC 171954Z 25009KT 10SM FEW045 SCT250 09/M04 A2980 RMK AO2 SLP095 T00941039


Station Type Date Time Source
KRIC Decoded METAR 2021/01/17 19:54 UTC NOAA

RICHMOND INTERNATIONAL AIRPORT, VA, United States (KRIC) 37-31N 077-19W 50M
Jan 17, 2021 - 02:54 PM EST / 2021.01.17 1954 UTC
Wind: from the WSW (250 degrees) at 10 MPH (9 KT):0
Visibility: 10 mile(s):0
Sky conditions: partly cloudy
Temperature: 48.9 F (9.4 C)
Dew Point: 25.0 F (-3.9 C)
Relative Humidity: 38%
Pressure (altimeter): 29.8 in. Hg (1009 hPa)
ob: KRIC 171954Z 25009KT 10SM FEW045 SCT250 09/M04 A2980 RMK AO2 SLP095 T00941039
cycle: 20

Station Type Date Time Source
KRIC TAF 2021/01/17 18:22 UTC NOAA

TAF KRIC 171720Z 1718/1818 25012G18KT P6SM SCT050 BKN250
FM172200 23009KT P6SM SCT120 BKN250
FM181500 26012KT P6SM SCT100 BKN250

Example: see airport list